Time;durP1;ratioP1;P1;durP2;ratioP2;P2;SDS_P1;SDS_P2;PMS_P1;PMS_P2;Temp;Humidity;BMP_temperature;BMP_pressure;BME280_temperature;BME280_humidity;BME280_pressure;Samples;Min_cycle;Max_cycle;Signal;HPM_P1;HPM_P2
2023/12/14 00:00:15;;;;;;;13.73;5.63;;;;;;;;;;5032704;28;20064;-69
2023/12/14 00:03:01;;;;;;;18.17;6.18;;;;;;;;;;5013552;28;20026;-68
2023/12/14 00:05:46;;;;;;;21.30;7.10;;;;;;;;;;5012181;28;20515;-68
2023/12/14 00:08:32;;;;;;;15.32;6.35;;;;;;;;;;5015718;28;20521;-68
2023/12/14 00:11:17;;;;;;;11.43;5.25;;;;;;;;;;5012308;28;20127;-68
2023/12/14 00:14:03;;;;;;;15.00;6.88;;;;;;;;;;5023605;28;20044;-69
2023/12/14 00:16:49;;;;;;;13.00;6.97;;;;;;;;;;5031525;28;20036;-69
2023/12/14 00:19:35;;;;;;;19.63;6.18;;;;;;;;;;5031708;28;20018;-68
2023/12/14 00:22:20;;;;;;;13.45;6.22;;;;;;;;;;5031182;28;20036;-68
2023/12/14 00:25:06;;;;;;;14.57;5.70;;;;;;;;;;5031376;28;20032;-68
2023/12/14 00:27:52;;;;;;;13.50;5.85;;;;;;;;;;5032063;28;20025;-69
2023/12/14 00:30:37;;;;;;;16.65;6.45;;;;;;;;;;5031038;28;20552;-68
2023/12/14 00:33:23;;;;;;;15.88;7.57;;;;;;;;;;5031554;28;20021;-68
2023/12/14 00:36:09;;;;;;;21.05;6.78;;;;;;;;;;5032347;28;20056;-68
2023/12/14 00:38:55;;;;;;;16.08;6.45;;;;;;;;;;5031749;28;20048;-68
2023/12/14 00:41:41;;;;;;;14.25;6.03;;;;;;;;;;5028488;28;20025;-69
2023/12/14 00:44:26;;;;;;;15.90;6.72;;;;;;;;;;5031772;28;20402;-69
2023/12/14 00:47:12;;;;;;;14.75;6.65;;;;;;;;;;5014741;28;20022;-68
2023/12/14 00:49:58;;;;;;;14.93;6.30;;;;;;;;;;5023316;28;20030;-69
2023/12/14 00:52:43;;;;;;;14.82;6.25;;;;;;;;;;5021973;28;20107;-68
2023/12/14 00:55:29;;;;;;;19.35;6.90;;;;;;;;;;5027931;28;20022;-68
2023/12/14 00:58:14;;;;;;;16.85;6.38;;;;;;;;;;5031381;28;20083;-68
2023/12/14 01:01:00;;;;;;;18.33;6.90;;;;;;;;;;5031032;28;20398;-68
2023/12/14 01:03:46;;;;;;;15.63;6.97;;;;;;;;;;5030529;28;20029;-68
2023/12/14 01:06:31;;;;;;;15.68;6.72;;;;;;;;;;5031530;28;20029;-68
2023/12/14 01:09:17;;;;;;;17.65;6.90;;;;;;;;;;5030214;28;20067;-68
2023/12/14 01:12:03;;;;;;;13.93;6.97;;;;;;;;;;5056786;23;20498;-74
2023/12/14 01:14:48;;;;;;;19.23;6.85;;;;;;;;;;5050091;28;20025;-72
2023/12/14 01:17:37;;;;;;;16.08;5.70;;;;;;;;;;5038064;28;20052;-73
2023/12/14 01:20:23;;;;;;;13.48;6.60;;;;;;;;;;5031273;28;20014;-72
2023/12/14 01:23:11;;;;;;;17.92;7.13;;;;;;;;;;5039442;28;20032;-72
2023/12/14 01:25:57;;;;;;;14.35;5.65;;;;;;;;;;5031216;28;20033;-72
2023/12/14 01:28:43;;;;;;;16.55;7.20;;;;;;;;;;5041235;28;20025;-72
2023/12/14 01:31:28;;;;;;;15.98;6.35;;;;;;;;;;5050085;28;20482;-72
2023/12/14 01:34:15;;;;;;;17.20;7.30;;;;;;;;;;5051774;28;20397;-72
2023/12/14 01:37:01;;;;;;;14.80;6.07;;;;;;;;;;5030252;28;20036;-72
2023/12/14 01:39:46;;;;;;;13.70;7.22;;;;;;;;;;5030865;28;20017;-72
2023/12/14 01:42:32;;;;;;;10.98;5.15;;;;;;;;;;5029678;28;20057;-72
2023/12/14 01:45:18;;;;;;;12.80;6.45;;;;;;;;;;5034428;28;20486;-72
2023/12/14 01:48:04;;;;;;;17.98;8.07;;;;;;;;;;5045616;28;20036;-72
2023/12/14 01:50:50;;;;;;;13.35;6.03;;;;;;;;;;5047822;28;20017;-72
2023/12/14 01:53:35;;;;;;;18.75;6.88;;;;;;;;;;5031322;28;20424;-72
2023/12/14 01:56:21;;;;;;;16.20;6.78;;;;;;;;;;5029781;28;20024;-72
2023/12/14 01:59:07;;;;;;;19.30;6.47;;;;;;;;;;5031522;28;20496;-72
2023/12/14 02:01:55;;;;;;;12.27;5.85;;;;;;;;;;5040673;28;20040;-72
2023/12/14 02:04:41;;;;;;;15.43;6.30;;;;;;;;;;5037834;28;20021;-72
2023/12/14 02:07:27;;;;;;;16.98;6.30;;;;;;;;;;5055381;28;20021;-72
2023/12/14 02:10:12;;;;;;;12.63;6.57;;;;;;;;;;5039808;28;20044;-72
2023/12/14 02:12:58;;;;;;;15.95;7.32;;;;;;;;;;5053377;28;20036;-72
2023/12/14 02:15:43;;;;;;;19.98;6.75;;;;;;;;;;5048286;28;20077;-72
2023/12/14 02:18:29;;;;;;;16.10;6.97;;;;;;;;;;5041697;28;20517;-72
2023/12/14 02:21:15;;;;;;;11.57;5.75;;;;;;;;;;5032434;28;20052;-72
2023/12/14 02:24:00;;;;;;;17.42;7.55;;;;;;;;;;5045993;28;20025;-72
2023/12/14 02:26:47;;;;;;;19.40;8.10;;;;;;;;;;5055223;28;20067;-72
2023/12/14 02:29:33;;;;;;;19.30;6.32;;;;;;;;;;5053243;28;20032;-72
2023/12/14 02:32:18;;;;;;;19.63;7.07;;;;;;;;;;5052705;28;20406;-71
2023/12/14 02:35:08;;;;;;;15.60;6.45;;;;;;;;;;5053129;28;20044;-72
2023/12/14 02:37:53;;;;;;;16.20;7.40;;;;;;;;;;5052736;28;20021;-72
2023/12/14 02:40:39;;;;;;;14.43;6.78;;;;;;;;;;5052805;28;20028;-72
2023/12/14 02:47:06;;;;;;;18.60;5.43;;;;;;;;;;5034536;28;20030;-72
2023/12/14 02:49:52;;;;;;;14.45;5.97;;;;;;;;;;5032734;28;20100;-72
2023/12/14 02:52:38;;;;;;;15.88;7.00;;;;;;;;;;5033956;28;20044;-71
2023/12/14 02:55:24;;;;;;;17.67;6.90;;;;;;;;;;5033163;28;20061;-72
2023/12/14 02:58:09;;;;;;;20.88;7.25;;;;;;;;;;5033591;28;20017;-71
2023/12/14 03:00:55;;;;;;;13.30;6.85;;;;;;;;;;5033009;28;20021;-72
2023/12/14 03:03:41;;;;;;;19.65;6.95;;;;;;;;;;5033507;28;20017;-71
2023/12/14 03:06:26;;;;;;;12.57;6.65;;;;;;;;;;5033488;28;20056;-71
2023/12/14 03:09:12;;;;;;;18.73;6.63;;;;;;;;;;5033153;28;20025;-72
2023/12/14 03:11:59;;;;;;;16.70;6.60;;;;;;;;;;5045977;28;20026;-71
2023/12/14 03:14:45;;;;;;;19.75;6.47;;;;;;;;;;5033418;28;20505;-71
2023/12/14 03:17:30;;;;;;;13.80;5.93;;;;;;;;;;5034526;28;20075;-71
2023/12/14 03:20:16;;;;;;;19.17;7.28;;;;;;;;;;5033639;28;20025;-72
2023/12/14 03:23:01;;;;;;;14.65;6.80;;;;;;;;;;5032988;28;20109;-71
2023/12/14 03:25:48;;;;;;;12.88;6.43;;;;;;;;;;5032975;28;20433;-71
2023/12/14 03:28:34;;;;;;;17.45;7.72;;;;;;;;;;5033034;28;20022;-71
2023/12/14 03:31:19;;;;;;;15.18;6.93;;;;;;;;;;5032692;28;20053;-72
2023/12/14 03:34:05;;;;;;;16.90;6.78;;;;;;;;;;5046180;28;20053;-72
2023/12/14 03:36:51;;;;;;;18.75;7.55;;;;;;;;;;5033331;28;20456;-71
2023/12/14 03:39:36;;;;;;;11.18;5.22;;;;;;;;;;5032871;28;20144;-71
2023/12/14 03:42:22;;;;;;;15.45;6.68;;;;;;;;;;5033629;28;20022;-71
2023/12/14 03:45:08;;;;;;;15.02;6.93;;;;;;;;;;5045376;28;20024;-72
2023/12/14 03:47:54;;;;;;;18.85;7.55;;;;;;;;;;5045766;28;20052;-72
2023/12/14 03:50:39;;;;;;;17.50;7.40;;;;;;;;;;5032236;28;20116;-71
2023/12/14 03:53:25;;;;;;;16.27;6.68;;;;;;;;;;5044963;28;20056;-72
2023/12/14 03:56:11;;;;;;;20.33;6.40;;;;;;;;;;5045505;28;20022;-71
2023/12/14 03:58:57;;;;;;;14.93;6.60;;;;;;;;;;5045126;28;20414;-71
2023/12/14 04:01:43;;;;;;;13.88;6.82;;;;;;;;;;5032576;28;20110;-71
2023/12/14 04:04:28;;;;;;;15.43;5.95;;;;;;;;;;5045577;28;20104;-72
2023/12/14 04:07:14;;;;;;;13.35;7.30;;;;;;;;;;5044793;28;20041;-71
2023/12/14 04:10:00;;;;;;;14.35;5.93;;;;;;;;;;5032394;28;20025;-71
2023/12/14 04:12:45;;;;;;;16.38;6.57;;;;;;;;;;5045077;28;20037;-71
2023/12/14 04:15:31;;;;;;;14.23;6.28;;;;;;;;;;5032121;28;20032;-72
2023/12/14 04:18:17;;;;;;;15.07;6.53;;;;;;;;;;5031210;28;20022;-72
2023/12/14 04:21:03;;;;;;;18.13;6.72;;;;;;;;;;5048530;28;20082;-72
2023/12/14 04:23:48;;;;;;;11.90;6.05;;;;;;;;;;5047231;28;20029;-72
2023/12/14 04:26:34;;;;;;;13.73;6.43;;;;;;;;;;5032115;28;20021;-72
2023/12/14 04:29:20;;;;;;;11.88;6.25;;;;;;;;;;5030252;28;20064;-71
2023/12/14 04:32:05;;;;;;;12.75;6.10;;;;;;;;;;5031262;28;20036;-71
2023/12/14 04:34:51;;;;;;;18.02;5.88;;;;;;;;;;5032107;28;20399;-71
2023/12/14 04:37:37;;;;;;;15.52;7.05;;;;;;;;;;5050331;28;20017;-72
2023/12/14 04:40:22;;;;;;;18.23;6.75;;;;;;;;;;5049964;28;20480;-72
2023/12/14 04:43:08;;;;;;;16.13;6.40;;;;;;;;;;5051983;28;20027;-72
2023/12/14 04:45:54;;;;;;;15.13;5.68;;;;;;;;;;5050682;28;20021;-72
2023/12/14 04:48:39;;;;;;;17.48;6.97;;;;;;;;;;5050724;28;20025;-72
2023/12/14 04:51:26;;;;;;;16.95;7.68;;;;;;;;;;5052655;28;20022;-72
2023/12/14 04:54:11;;;;;;;16.13;6.05;;;;;;;;;;5051474;28;20398;-72
2023/12/14 04:56:57;;;;;;;16.83;6.47;;;;;;;;;;5048176;28;20025;-72
2023/12/14 04:59:43;;;;;;;13.95;6.45;;;;;;;;;;5037273;28;20108;-72
2023/12/14 05:02:28;;;;;;;14.27;5.65;;;;;;;;;;5044131;28;20021;-72
2023/12/14 05:05:14;;;;;;;16.60;6.88;;;;;;;;;;5047398;28;20025;-72
2023/12/14 05:08:00;;;;;;;17.58;6.70;;;;;;;;;;5040726;28;20104;-72
2023/12/14 05:10:46;;;;;;;11.65;6.25;;;;;;;;;;5034610;28;20033;-72
2023/12/14 05:13:31;;;;;;;14.45;6.82;;;;;;;;;;5016353;28;20029;-72
2023/12/14 05:16:17;;;;;;;13.73;6.10;;;;;;;;;;5032715;28;20057;-71
2023/12/14 05:19:03;;;;;;;14.68;6.97;;;;;;;;;;5032002;28;20030;-72
2023/12/14 05:21:48;;;;;;;16.55;6.53;;;;;;;;;;5031815;28;20030;-72
2023/12/14 05:24:34;;;;;;;14.68;6.50;;;;;;;;;;5040375;28;20437;-72
2023/12/14 05:27:19;;;;;;;18.25;6.85;;;;;;;;;;5049483;28;20122;-72
2023/12/14 05:30:06;;;;;;;14.77;6.45;;;;;;;;;;5047944;28;20021;-72
2023/12/14 05:32:51;;;;;;;14.50;6.22;;;;;;;;;;5016030;28;20037;-72
2023/12/14 05:35:37;;;;;;;12.90;5.88;;;;;;;;;;5036046;28;20541;-72
2023/12/14 05:38:23;;;;;;;16.27;6.47;;;;;;;;;;5031969;28;20033;-72
2023/12/14 05:41:10;;;;;;;13.48;5.97;;;;;;;;;;5034624;28;20485;-71
2023/12/14 05:43:55;;;;;;;12.25;5.68;;;;;;;;;;5034937;28;20522;-71
2023/12/14 05:46:41;;;;;;;13.88;5.93;;;;;;;;;;5036488;28;20454;-73
2023/12/14 05:49:26;;;;;;;16.40;6.43;;;;;;;;;;5038808;28;20025;-72
2023/12/14 05:52:12;;;;;;;14.57;7.30;;;;;;;;;;5034556;28;20406;-72
2023/12/14 05:54:58;;;;;;;15.45;6.88;;;;;;;;;;5035588;28;20030;-71
2023/12/14 05:57:43;;;;;;;17.75;6.95;;;;;;;;;;5036766;28;20080;-71
2023/12/14 06:00:29;;;;;;;16.02;6.93;;;;;;;;;;5034828;28;20026;-72
2023/12/14 06:03:14;;;;;;;14.57;6.22;;;;;;;;;;5048432;28;20020;-72
2023/12/14 06:06:00;;;;;;;14.23;5.97;;;;;;;;;;5055877;28;20108;-72
2023/12/14 06:08:48;;;;;;;12.95;5.90;;;;;;;;;;5054255;28;20029;-71
2023/12/14 06:11:34;;;;;;;14.77;5.60;;;;;;;;;;5053635;28;20025;-72
2023/12/14 06:14:20;;;;;;;13.48;6.72;;;;;;;;;;5052754;28;20397;-71
2023/12/14 06:17:05;;;;;;;17.83;6.60;;;;;;;;;;5054622;28;20051;-71
2023/12/14 06:19:51;;;;;;;15.95;5.68;;;;;;;;;;5055893;28;20390;-72
2023/12/14 06:22:37;;;;;;;12.50;6.10;;;;;;;;;;5052940;28;20029;-72
2023/12/14 06:25:22;;;;;;;12.75;5.55;;;;;;;;;;5053503;28;20104;-72
2023/12/14 06:28:08;;;;;;;11.15;5.13;;;;;;;;;;5049200;28;20025;-72
2023/12/14 06:30:54;;;;;;;13.57;5.95;;;;;;;;;;5033119;28;20053;-72
2023/12/14 06:33:39;;;;;;;13.38;6.22;;;;;;;;;;5035147;28;20028;-72
2023/12/14 06:36:29;;;;;;;12.90;7.35;;;;;;;;;;5053421;28;20459;-72
2023/12/14 06:39:14;;;;;;;16.25;5.82;;;;;;;;;;5052201;28;20111;-71
2023/12/14 06:42:00;;;;;;;14.25;6.45;;;;;;;;;;5053451;28;20028;-72
2023/12/14 06:44:46;;;;;;;15.02;5.65;;;;;;;;;;5052906;28;20063;-72
2023/12/14 06:47:31;;;;;;;19.38;7.32;;;;;;;;;;5038852;28;20494;-72
2023/12/14 06:50:17;;;;;;;14.77;6.95;;;;;;;;;;5032017;28;20032;-72
2023/12/14 06:53:03;;;;;;;10.02;5.10;;;;;;;;;;5034742;28;20021;-72
2023/12/14 06:55:48;;;;;;;13.52;5.82;;;;;;;;;;5033340;28;20029;-72
2023/12/14 06:58:35;;;;;;;14.60;6.13;;;;;;;;;;5049400;28;20036;-72
2023/12/14 07:01:20;;;;;;;12.63;5.97;;;;;;;;;;5051655;28;20065;-72
2023/12/14 07:04:07;;;;;;;11.50;6.45;;;;;;;;;;5053210;28;20027;-72
2023/12/14 07:06:53;;;;;;;15.82;6.50;;;;;;;;;;5052461;28;20108;-72
2023/12/14 07:09:39;;;;;;;12.38;5.47;;;;;;;;;;5052842;28;20025;-72
2023/12/14 07:12:24;;;;;;;13.82;5.57;;;;;;;;;;5074183;22;20072;-69
2023/12/14 07:15:10;;;;;;;14.80;6.20;;;;;;;;;;5052057;28;20033;-69
2023/12/14 07:17:55;;;;;;;12.98;6.30;;;;;;;;;;5035336;28;20021;-69
2023/12/14 07:20:41;;;;;;;19.10;6.15;;;;;;;;;;5036951;28;20434;-69
2023/12/14 07:23:27;;;;;;;13.98;5.43;;;;;;;;;;5015992;28;20021;-69
2023/12/14 07:26:12;;;;;;;13.02;7.45;;;;;;;;;;5029636;28;20125;-69
2023/12/14 07:29:00;;;;;;;12.15;5.20;;;;;;;;;;5034893;28;20163;-69
2023/12/14 07:31:46;;;;;;;15.18;6.68;;;;;;;;;;5034451;28;20064;-69
2023/12/14 07:34:32;;;;;;;13.00;6.22;;;;;;;;;;5033808;28;20507;-69
2023/12/14 07:37:17;;;;;;;15.57;6.72;;;;;;;;;;5032299;28;20394;-69
2023/12/14 07:40:03;;;;;;;11.77;6.07;;;;;;;;;;5034458;28;20088;-69
2023/12/14 07:42:49;;;;;;;19.60;6.60;;;;;;;;;;5033409;28;20017;-69
2023/12/14 07:45:35;;;;;;;12.98;5.90;;;;;;;;;;5034304;28;20021;-69
2023/12/14 07:48:21;;;;;;;15.32;6.38;;;;;;;;;;5019029;28;20682;-69
2023/12/14 07:51:06;;;;;;;15.15;5.82;;;;;;;;;;5015347;28;20032;-67
2023/12/14 07:53:52;;;;;;;15.40;5.90;;;;;;;;;;5031497;28;20033;-69
2023/12/14 07:56:38;;;;;;;11.73;5.40;;;;;;;;;;5031936;28;20109;-68
2023/12/14 07:59:24;;;;;;;10.55;4.80;;;;;;;;;;5032496;28;20021;-69
2023/12/14 08:02:09;;;;;;;14.38;5.63;;;;;;;;;;5032158;28;20028;-69
2023/12/14 08:04:57;;;;;;;16.63;6.00;;;;;;;;;;5034432;28;20022;-69
2023/12/14 08:07:42;;;;;;;17.08;6.53;;;;;;;;;;5032199;28;20107;-69
2023/12/14 08:10:28;;;;;;;13.23;5.80;;;;;;;;;;5033283;28;20510;-71
2023/12/14 08:13:13;;;;;;;12.55;5.53;;;;;;;;;;5032056;28;20417;-69
2023/12/14 08:16:00;;;;;;;11.20;5.85;;;;;;;;;;5032968;28;20021;-69
2023/12/14 08:18:47;;;;;;;11.55;5.18;;;;;;;;;;5032802;28;20136;-69
2023/12/14 08:21:32;;;;;;;10.68;5.55;;;;;;;;;;5028358;28;20559;-71
2023/12/14 08:24:18;;;;;;;15.35;6.30;;;;;;;;;;5034686;28;20029;-69
2023/12/14 08:27:04;;;;;;;12.15;5.50;;;;;;;;;;5036621;28;20487;-69
2023/12/14 08:29:49;;;;;;;15.82;5.63;;;;;;;;;;5035700;28;20028;-68
2023/12/14 08:32:36;;;;;;;11.70;5.65;;;;;;;;;;5033760;28;20049;-69
2023/12/14 08:35:22;;;;;;;13.60;6.32;;;;;;;;;;5030214;28;20028;-69
2023/12/14 08:38:07;;;;;;;14.65;5.88;;;;;;;;;;5000242;28;20076;-69
2023/12/14 08:40:53;;;;;;;15.20;5.72;;;;;;;;;;5027844;28;20083;-69
2023/12/14 08:43:39;;;;;;;15.02;6.10;;;;;;;;;;5033225;28;20469;-69
2023/12/14 08:46:24;;;;;;;12.60;5.45;;;;;;;;;;5043093;28;20025;-69
2023/12/14 08:49:10;;;;;;;13.40;6.10;;;;;;;;;;5034273;28;20398;-69
2023/12/14 08:51:56;;;;;;;15.05;6.20;;;;;;;;;;5019531;28;20411;-69
2023/12/14 08:54:44;;;;;;;14.00;5.68;;;;;;;;;;5015137;28;20108;-69
2023/12/14 08:57:30;;;;;;;12.05;5.75;;;;;;;;;;5001874;28;20104;-69
2023/12/14 09:00:19;;;;;;;17.17;6.55;;;;;;;;;;5012512;28;20022;-69
2023/12/14 09:03:05;;;;;;;13.70;5.07;;;;;;;;;;5015493;28;20084;-69
2023/12/14 09:05:50;;;;;;;15.43;6.35;;;;;;;;;;5032076;28;20025;-69
2023/12/14 09:08:36;;;;;;;13.23;5.95;;;;;;;;;;5029166;28;20026;-68
2023/12/14 09:11:22;;;;;;;16.05;7.13;;;;;;;;;;5031746;28;20573;-70
2023/12/14 09:14:07;;;;;;;14.52;6.35;;;;;;;;;;5033112;28;20017;-70
2023/12/14 09:16:53;;;;;;;18.65;6.05;;;;;;;;;;5035907;28;20029;-70
2023/12/14 09:19:39;;;;;;;18.95;6.75;;;;;;;;;;5036513;28;20117;-70
2023/12/14 09:22:24;;;;;;;18.42;8.57;;;;;;;;;;5029030;28;20555;-70
2023/12/14 09:25:10;;;;;;;19.02;8.95;;;;;;;;;;5024050;28;20081;-70
2023/12/14 09:27:56;;;;;;;20.95;8.85;;;;;;;;;;5035947;28;20033;-70
2023/12/14 09:30:42;;;;;;;20.10;7.45;;;;;;;;;;5037576;28;20029;-70
2023/12/14 09:33:27;;;;;;;13.85;6.35;;;;;;;;;;5033796;28;20036;-70
2023/12/14 09:36:13;;;;;;;18.52;7.07;;;;;;;;;;5033915;28;20968;-70
2023/12/14 09:38:58;;;;;;;15.68;6.20;;;;;;;;;;5016962;28;20032;-71
2023/12/14 09:41:46;;;;;;;16.55;6.40;;;;;;;;;;5020919;28;20013;-70
2023/12/14 09:44:32;;;;;;;12.40;6.40;;;;;;;;;;5017338;28;20018;-70
2023/12/14 09:47:18;;;;;;;15.38;6.60;;;;;;;;;;5041024;28;20719;-70
2023/12/14 09:50:05;;;;;;;18.65;6.40;;;;;;;;;;5015304;28;20026;-70
2023/12/14 09:52:51;;;;;;;19.52;6.57;;;;;;;;;;5018423;28;20034;-70
2023/12/14 09:55:36;;;;;;;16.25;6.03;;;;;;;;;;5017243;28;20113;-70
2023/12/14 09:58:22;;;;;;;14.55;6.10;;;;;;;;;;5030781;28;20113;-70
2023/12/14 10:01:26;;;;;;;14.68;6.13;;;;;;;;;;5034772;28;20044;-70
2023/12/14 10:04:17;;;;;;;16.55;5.65;;;;;;;;;;5029479;28;20508;-70
2023/12/14 10:07:06;;;;;;;13.40;6.30;;;;;;;;;;5014262;28;20034;-70
2023/12/14 10:09:53;;;;;;;12.45;5.32;;;;;;;;;;5018828;28;20051;-70
2023/12/14 10:12:54;;;;;;;13.55;5.35;;;;;;;;;;5013472;28;20561;-70
2023/12/14 10:15:44;;;;;;;14.27;5.72;;;;;;;;;;5022575;28;20053;-69
2023/12/14 10:18:31;;;;;;;11.85;5.82;;;;;;;;;;5016155;28;20029;-70
2023/12/14 10:21:17;;;;;;;16.58;8.05;;;;;;;;;;5014304;28;20022;-70
2023/12/14 10:24:03;;;;;;;15.93;5.97;;;;;;;;;;5023461;28;20025;-69
2023/12/14 10:26:50;;;;;;;14.18;6.63;;;;;;;;;;5029203;28;20088;-70
2023/12/14 10:29:39;;;;;;;13.75;5.53;;;;;;;;;;5034604;28;20506;-70
2023/12/14 10:32:25;;;;;;;15.90;7.03;;;;;;;;;;5028471;28;20013;-70
2023/12/14 10:35:12;;;;;;;14.52;6.05;;;;;;;;;;5015292;28;20030;-71
2023/12/14 10:38:08;;;;;;;14.48;6.38;;;;;;;;;;5015268;28;20462;-71
2023/12/14 10:40:55;;;;;;;16.98;6.10;;;;;;;;;;5014339;28;20018;-70
2023/12/14 10:43:41;;;;;;;13.48;6.20;;;;;;;;;;5025662;28;20033;-71
2023/12/14 10:46:27;;;;;;;13.32;6.32;;;;;;;;;;5019354;28;20021;-71
2023/12/14 10:49:13;;;;;;;23.17;7.35;;;;;;;;;;5033171;28;20079;-71
2023/12/14 10:51:59;;;;;;;17.52;6.38;;;;;;;;;;5029038;28;20029;-71
2023/12/14 10:54:46;;;;;;;13.90;5.28;;;;;;;;;;5027464;28;20072;-70
2023/12/14 10:57:34;;;;;;;11.60;5.90;;;;;;;;;;5012689;28;20022;-71
2023/12/14 11:00:19;;;;;;;17.20;5.68;;;;;;;;;;5014842;28;20172;-71
2023/12/14 11:03:05;;;;;;;30.50;10.70;;;;;;;;;;5014839;28;20030;-70
2023/12/14 11:05:51;;;;;;;18.67;6.93;;;;;;;;;;5018787;28;20021;-71
2023/12/14 11:08:36;;;;;;;13.73;5.95;;;;;;;;;;5032554;28;20021;-70
2023/12/14 11:11:22;;;;;;;18.42;7.20;;;;;;;;;;5030567;28;20029;-70
2023/12/14 11:14:10;;;;;;;15.25;7.18;;;;;;;;;;5032391;28;20033;-70
2023/12/14 11:16:57;;;;;;;20.00;7.93;;;;;;;;;;5015678;28;20026;-70
2023/12/14 11:19:43;;;;;;;17.27;6.85;;;;;;;;;;5012783;28;20037;-69
2023/12/14 11:22:29;;;;;;;15.90;6.97;;;;;;;;;;5016282;28;20080;-69
2023/12/14 11:25:15;;;;;;;12.40;6.47;;;;;;;;;;5013557;28;20163;-69
2023/12/14 11:28:04;;;;;;;12.75;6.47;;;;;;;;;;5018060;28;20078;-69
2023/12/14 11:30:50;;;;;;;12.32;6.75;;;;;;;;;;5032428;28;20024;-70
2023/12/14 11:33:35;;;;;;;12.73;5.88;;;;;;;;;;5033666;28;20064;-70
2023/12/14 11:36:21;;;;;;;18.23;6.60;;;;;;;;;;5018722;28;20057;-71
2023/12/14 11:39:11;;;;;;;12.43;6.15;;;;;;;;;;5033051;28;20044;-71
2023/12/14 11:42:01;;;;;;;22.45;7.47;;;;;;;;;;5031396;28;20399;-70
2023/12/14 11:44:47;;;;;;;14.13;7.03;;;;;;;;;;5039039;28;20029;-70
2023/12/14 11:47:33;;;;;;;13.63;6.20;;;;;;;;;;5014190;28;20411;-69
2023/12/14 11:50:20;;;;;;;12.00;6.05;;;;;;;;;;4999135;28;20116;-69
2023/12/14 11:53:06;;;;;;;18.17;6.40;;;;;;;;;;5013288;28;20030;-69
2023/12/14 11:55:51;;;;;;;14.48;6.10;;;;;;;;;;5025311;28;20026;-69
2023/12/14 11:58:40;;;;;;;19.08;6.57;;;;;;;;;;5013296;28;20034;-69
2023/12/14 12:01:28;;;;;;;9.75;5.45;;;;;;;;;;5026161;28;20056;-69
2023/12/14 12:04:13;;;;;;;14.85;6.03;;;;;;;;;;5031327;28;20116;-70
2023/12/14 12:07:03;;;;;;;11.20;5.68;;;;;;;;;;5022026;28;20029;-70
2023/12/14 12:09:49;;;;;;;15.35;6.72;;;;;;;;;;5013185;28;20021;-70
2023/12/14 12:12:35;;;;;;;13.82;6.22;;;;;;;;;;5021186;28;20437;-69
2023/12/14 12:15:21;;;;;;;15.52;6.18;;;;;;;;;;5033039;28;20403;-69
2023/12/14 12:18:08;;;;;;;13.60;6.70;;;;;;;;;;5032771;28;20108;-69
2023/12/14 12:20:54;;;;;;;14.63;6.50;;;;;;;;;;5032805;28;20022;-69
2023/12/14 12:23:41;;;;;;;15.85;5.95;;;;;;;;;;5032475;28;20025;-69
2023/12/14 12:26:27;;;;;;;13.88;6.30;;;;;;;;;;5033220;28;20025;-69
2023/12/14 12:29:13;;;;;;;12.77;6.40;;;;;;;;;;5032186;28;20033;-70
2023/12/14 12:31:58;;;;;;;12.60;5.85;;;;;;;;;;5017113;28;20490;-70
2023/12/14 12:34:44;;;;;;;14.93;6.28;;;;;;;;;;5031364;28;20032;-69
2023/12/14 12:37:29;;;;;;;11.35;6.07;;;;;;;;;;5022440;28;20631;-70
2023/12/14 12:40:19;;;;;;;12.82;5.32;;;;;;;;;;5013175;28;20464;-70
2023/12/14 12:43:05;;;;;;;13.48;6.03;;;;;;;;;;5025506;28;20029;-70
2023/12/14 12:45:51;;;;;;;13.35;5.32;;;;;;;;;;5031768;28;20196;-70
2023/12/14 12:48:36;;;;;;;14.80;5.78;;;;;;;;;;5023989;28;20088;-70
2023/12/14 12:51:22;;;;;;;16.17;6.10;;;;;;;;;;5032648;28;20414;-69
2023/12/14 12:54:08;;;;;;;15.95;6.50;;;;;;;;;;5032070;28;20017;-69
2023/12/14 12:56:53;;;;;;;15.85;6.95;;;;;;;;;;5031238;28;20036;-69
2023/12/14 12:59:39;;;;;;;14.38;7.22;;;;;;;;;;5029181;28;20108;-69
2023/12/14 13:02:25;;;;;;;14.32;6.15;;;;;;;;;;5030241;28;20048;-69
2023/12/14 13:05:10;;;;;;;14.70;6.35;;;;;;;;;;5027976;28;20484;-70
2023/12/14 13:07:57;;;;;;;15.77;6.55;;;;;;;;;;5015638;28;20029;-69
2023/12/14 13:10:43;;;;;;;17.23;5.70;;;;;;;;;;5011053;28;20408;-69
2023/12/14 13:13:31;;;;;;;11.15;5.90;;;;;;;;;;5067154;22;20041;-72
2023/12/14 13:16:17;;;;;;;18.48;6.47;;;;;;;;;;5049487;28;20086;-72
2023/12/14 13:19:03;;;;;;;17.17;6.05;;;;;;;;;;5050011;28;20078;-72
2023/12/14 13:21:49;;;;;;;12.23;5.63;;;;;;;;;;5036801;28;20021;-72
2023/12/14 13:24:34;;;;;;;16.98;7.38;;;;;;;;;;5052430;28;20029;-72
2023/12/14 13:27:20;;;;;;;14.10;6.35;;;;;;;;;;5052130;28;20048;-72
2023/12/14 13:30:06;;;;;;;26.13;8.52;;;;;;;;;;5041923;28;20035;-72
2023/12/14 13:32:53;;;;;;;18.55;7.78;;;;;;;;;;5048477;28;20078;-72
2023/12/14 13:35:39;;;;;;;35.92;11.75;;;;;;;;;;5032749;28;20103;-72
2023/12/14 13:38:25;;;;;;;19.77;8.23;;;;;;;;;;5019707;28;20026;-72
2023/12/14 13:41:11;;;;;;;15.80;5.88;;;;;;;;;;5009998;28;20026;-72
2023/12/14 13:43:56;;;;;;;14.70;6.45;;;;;;;;;;5020540;28;20049;-72
2023/12/14 13:46:42;;;;;;;16.33;7.15;;;;;;;;;;5031133;28;20465;-72
2023/12/14 13:49:27;;;;;;;15.88;7.72;;;;;;;;;;5030541;28;20029;-72
2023/12/14 13:52:13;;;;;;;15.00;6.78;;;;;;;;;;5035400;28;20029;-72
2023/12/14 13:54:59;;;;;;;14.50;6.45;;;;;;;;;;5051284;28;20130;-72
2023/12/14 13:57:45;;;;;;;15.50;6.70;;;;;;;;;;5050075;28;20035;-72
2023/12/14 14:00:32;;;;;;;17.95;6.20;;;;;;;;;;5047412;28;20025;-72
2023/12/14 14:03:18;;;;;;;12.50;6.03;;;;;;;;;;5030566;28;20025;-72
2023/12/14 14:06:05;;;;;;;15.38;6.55;;;;;;;;;;5033229;28;20510;-72
2023/12/14 14:08:50;;;;;;;15.25;6.90;;;;;;;;;;5053724;28;20032;-72
2023/12/14 14:11:36;;;;;;;13.48;5.90;;;;;;;;;;5052611;28;20064;-72
2023/12/14 14:14:23;;;;;;;13.93;5.82;;;;;;;;;;5041127;28;20414;-72
2023/12/14 14:17:09;;;;;;;14.95;6.63;;;;;;;;;;5048120;28;20509;-72
2023/12/14 14:19:55;;;;;;;12.05;5.85;;;;;;;;;;5054072;28;20033;-72
2023/12/14 14:22:40;;;;;;;15.35;6.68;;;;;;;;;;5051378;28;20021;-72
2023/12/14 14:25:26;;;;;;;10.60;5.00;;;;;;;;;;5053169;28;20048;-72
2023/12/14 14:28:12;;;;;;;11.88;6.18;;;;;;;;;;5054345;28;20083;-72
2023/12/14 14:30:58;;;;;;;19.40;6.57;;;;;;;;;;5053633;28;20021;-72
2023/12/14 14:33:44;;;;;;;13.35;5.47;;;;;;;;;;5053382;28;20025;-72
2023/12/14 14:36:29;;;;;;;20.05;6.45;;;;;;;;;;5046851;28;20113;-72
2023/12/14 14:39:18;;;;;;;12.32;5.35;;;;;;;;;;5033946;28;20083;-72
2023/12/14 14:42:03;;;;;;;12.02;7.55;;;;;;;;;;5035420;28;20091;-72
2023/12/14 14:44:50;;;;;;;12.63;6.00;;;;;;;;;;5034055;28;20026;-72
2023/12/14 14:47:36;;;;;;;12.18;4.65;;;;;;;;;;5033809;28;20025;-72
2023/12/14 14:50:22;;;;;;;16.63;7.55;;;;;;;;;;5031532;28;20029;-72
2023/12/14 14:53:07;;;;;;;10.30;4.78;;;;;;;;;;5001666;28;20030;-72
2023/12/14 14:55:55;;;;;;;13.23;6.20;;;;;;;;;;5013860;28;20101;-72
2023/12/14 14:58:41;;;;;;;13.68;5.90;;;;;;;;;;5035140;28;20075;-72
2023/12/14 15:01:26;;;;;;;19.55;6.75;;;;;;;;;;5050626;28;20028;-72
2023/12/14 15:04:12;;;;;;;13.80;5.43;;;;;;;;;;5051650;28;20398;-72
2023/12/14 15:06:57;;;;;;;14.85;5.20;;;;;;;;;;5038508;28;20445;-72
2023/12/14 15:09:44;;;;;;;14.77;6.00;;;;;;;;;;5033289;28;20554;-72
2023/12/14 15:12:29;;;;;;;13.32;6.45;;;;;;;;;;5029848;28;20033;-72
2023/12/14 15:15:15;;;;;;;13.50;6.35;;;;;;;;;;5032940;28;20025;-72
2023/12/14 15:18:01;;;;;;;14.05;6.13;;;;;;;;;;5030405;28;20025;-72
2023/12/14 15:20:48;;;;;;;12.45;5.28;;;;;;;;;;5033038;28;20021;-72
2023/12/14 15:23:34;;;;;;;13.13;5.20;;;;;;;;;;5052130;28;20060;-72
2023/12/14 15:26:20;;;;;;;10.20;5.57;;;;;;;;;;5050947;28;20028;-72
2023/12/14 15:29:05;;;;;;;14.45;6.63;;;;;;;;;;5013651;28;20409;-72
2023/12/14 15:31:53;;;;;;;11.50;6.22;;;;;;;;;;5012530;28;20092;-72
2023/12/14 15:34:38;;;;;;;14.50;5.57;;;;;;;;;;5028878;28;20036;-72
2023/12/14 15:37:24;;;;;;;14.27;6.18;;;;;;;;;;5032475;28;20026;-72
2023/12/14 15:40:10;;;;;;;13.75;5.88;;;;;;;;;;5033247;28;20029;-72
2023/12/14 15:42:55;;;;;;;12.93;5.00;;;;;;;;;;5032940;28;20375;-72
2023/12/14 15:45:43;;;;;;;11.02;5.18;;;;;;;;;;5041080;28;20040;-72
2023/12/14 15:48:28;;;;;;;13.25;5.50;;;;;;;;;;5050978;28;20496;-72
2023/12/14 15:51:14;;;;;;;14.43;6.70;;;;;;;;;;5052200;28;20440;-72
2023/12/14 15:54:00;;;;;;;10.60;4.85;;;;;;;;;;5030019;28;20036;-72
2023/12/14 15:56:45;;;;;;;12.18;5.30;;;;;;;;;;5032647;28;20025;-72
2023/12/14 15:59:32;;;;;;;10.48;4.90;;;;;;;;;;5037683;28;20048;-73
2023/12/14 16:02:17;;;;;;;10.63;5.20;;;;;;;;;;5031562;28;20020;-72
2023/12/14 16:05:03;;;;;;;13.23;5.38;;;;;;;;;;5032114;28;20044;-72
2023/12/14 16:07:49;;;;;;;15.68;6.10;;;;;;;;;;5034252;28;20104;-72
2023/12/14 16:10:35;;;;;;;12.93;5.57;;;;;;;;;;5053741;28;20033;-72
2023/12/14 16:13:20;;;;;;;15.73;6.10;;;;;;;;;;5053045;28;20036;-72
2023/12/14 16:16:07;;;;;;;12.95;7.18;;;;;;;;;;5052766;28;20094;-72
2023/12/14 16:18:53;;;;;;;15.55;6.60;;;;;;;;;;5024586;28;20595;-72
2023/12/14 16:21:38;;;;;;;14.73;6.28;;;;;;;;;;4997628;28;20483;-72
2023/12/14 16:24:24;;;;;;;14.95;7.15;;;;;;;;;;5016502;28;20068;-72